sensor_id;sensor_type;location;lat;lon;timestamp;P1;durP1;ratioP1;P2;durP2;ratioP2
46158;SDS011;31888;44.512;26.104;2023-06-22T00:00:12;19.40;;;15.73;;
46158;SDS011;31888;44.512;26.104;2023-06-22T00:02:38;23.05;;;15.35;;
46158;SDS011;31888;44.512;26.104;2023-06-22T00:05:04;18.80;;;14.32;;
46158;SDS011;31888;44.512;26.104;2023-06-22T00:07:34;20.27;;;15.38;;
46158;SDS011;31888;44.512;26.104;2023-06-22T00:09:59;17.45;;;15.10;;
46158;SDS011;31888;44.512;26.104;2023-06-22T00:12:26;26.13;;;14.88;;
46158;SDS011;31888;44.512;26.104;2023-06-22T00:14:50;19.10;;;15.43;;
46158;SDS011;31888;44.512;26.104;2023-06-22T00:17:15;19.88;;;15.10;;
46158;SDS011;31888;44.512;26.104;2023-06-22T00:19:39;21.65;;;14.60;;
46158;SDS011;31888;44.512;26.104;2023-06-22T00:22:04;19.50;;;15.77;;
46158;SDS011;31888;44.512;26.104;2023-06-22T00:24:30;24.55;;;15.65;;
46158;SDS011;31888;44.512;26.104;2023-06-22T00:26:55;19.30;;;14.77;;
46158;SDS011;31888;44.512;26.104;2023-06-22T00:29:20;21.15;;;14.45;;
46158;SDS011;31888;44.512;26.104;2023-06-22T00:31:47;20.15;;;14.57;;
46158;SDS011;31888;44.512;26.104;2023-06-22T00:34:13;18.58;;;13.60;;
46158;SDS011;31888;44.512;26.104;2023-06-22T00:36:38;22.98;;;15.77;;
46158;SDS011;31888;44.512;26.104;2023-06-22T00:39:03;18.65;;;14.40;;
46158;SDS011;31888;44.512;26.104;2023-06-22T00:41:31;18.70;;;14.65;;
46158;SDS011;31888;44.512;26.104;2023-06-22T00:43:57;17.70;;;14.18;;
46158;SDS011;31888;44.512;26.104;2023-06-22T00:46:24;18.27;;;14.77;;
46158;SDS011;31888;44.512;26.104;2023-06-22T00:48:49;17.63;;;15.27;;
46158;SDS011;31888;44.512;26.104;2023-06-22T00:51:15;18.92;;;14.45;;
46158;SDS011;31888;44.512;26.104;2023-06-22T00:53:40;19.98;;;15.50;;
46158;SDS011;31888;44.512;26.104;2023-06-22T00:56:05;22.85;;;16.00;;
46158;SDS011;31888;44.512;26.104;2023-06-22T00:58:33;20.80;;;15.13;;
46158;SDS011;31888;44.512;26.104;2023-06-22T01:00:58;21.23;;;15.90;;
46158;SDS011;31888;44.512;26.104;2023-06-22T01:03:23;19.50;;;15.48;;
46158;SDS011;31888;44.512;26.104;2023-06-22T01:05:48;19.15;;;15.68;;
46158;SDS011;31888;44.512;26.104;2023-06-22T01:08:23;19.20;;;16.95;;
46158;SDS011;31888;44.512;26.104;2023-06-22T01:10:55;19.35;;;15.65;;
46158;SDS011;31888;44.512;26.104;2023-06-22T01:13:26;24.07;;;15.70;;
46158;SDS011;31888;44.512;26.104;2023-06-22T01:16:00;21.30;;;13.98;;
46158;SDS011;31888;44.512;26.104;2023-06-22T01:18:30;20.38;;;16.13;;
46158;SDS011;31888;44.512;26.104;2023-06-22T01:23:26;21.33;;;15.43;;
46158;SDS011;31888;44.512;26.104;2023-06-22T01:25:59;19.65;;;16.17;;
46158;SDS011;31888;44.512;26.104;2023-06-22T01:28:40;19.42;;;15.85;;
46158;SDS011;31888;44.512;26.104;2023-06-22T01:31:07;21.38;;;13.70;;
46158;SDS011;31888;44.512;26.104;2023-06-22T01:33:35;18.30;;;15.00;;
46158;SDS011;31888;44.512;26.104;2023-06-22T01:36:02;19.77;;;15.38;;
46158;SDS011;31888;44.512;26.104;2023-06-22T01:38:27;21.88;;;15.65;;
46158;SDS011;31888;44.512;26.104;2023-06-22T01:40:54;22.73;;;15.52;;
46158;SDS011;31888;44.512;26.104;2023-06-22T01:43:21;23.23;;;16.05;;
46158;SDS011;31888;44.512;26.104;2023-06-22T01:45:49;23.52;;;16.17;;
46158;SDS011;31888;44.512;26.104;2023-06-22T01:48:15;24.33;;;16.48;;
46158;SDS011;31888;44.512;26.104;2023-06-22T01:50:40;25.15;;;17.05;;
46158;SDS011;31888;44.512;26.104;2023-06-22T01:53:06;21.83;;;16.15;;
46158;SDS011;31888;44.512;26.104;2023-06-22T01:55:31;23.88;;;17.58;;
46158;SDS011;31888;44.512;26.104;2023-06-22T01:57:56;22.25;;;17.92;;
46158;SDS011;31888;44.512;26.104;2023-06-22T02:00:21;23.25;;;16.65;;
46158;SDS011;31888;44.512;26.104;2023-06-22T02:02:52;24.90;;;17.38;;
46158;SDS011;31888;44.512;26.104;2023-06-22T02:05:21;21.95;;;16.13;;
46158;SDS011;31888;44.512;26.104;2023-06-22T02:07:52;20.63;;;16.00;;
46158;SDS011;31888;44.512;26.104;2023-06-22T02:12:46;21.50;;;16.00;;
46158;SDS011;31888;44.512;26.104;2023-06-22T02:15:12;22.15;;;16.17;;
46158;SDS011;31888;44.512;26.104;2023-06-22T02:17:40;28.10;;;18.33;;
46158;SDS011;31888;44.512;26.104;2023-06-22T02:20:13;27.73;;;18.27;;
46158;SDS011;31888;44.512;26.104;2023-06-22T02:25:06;21.13;;;17.25;;
46158;SDS011;31888;44.512;26.104;2023-06-22T02:27:31;24.52;;;17.55;;
46158;SDS011;31888;44.512;26.104;2023-06-22T02:29:56;23.38;;;16.98;;
46158;SDS011;31888;44.512;26.104;2023-06-22T02:32:21;21.55;;;15.90;;
46158;SDS011;31888;44.512;26.104;2023-06-22T02:34:46;25.20;;;16.70;;
46158;SDS011;31888;44.512;26.104;2023-06-22T02:37:13;19.63;;;16.90;;
46158;SDS011;31888;44.512;26.104;2023-06-22T02:39:38;33.45;;;17.48;;
46158;SDS011;31888;44.512;26.104;2023-06-22T02:42:03;22.83;;;17.40;;
46158;SDS011;31888;44.512;26.104;2023-06-22T02:44:29;23.08;;;17.98;;
46158;SDS011;31888;44.512;26.104;2023-06-22T02:46:54;24.45;;;17.42;;
46158;SDS011;31888;44.512;26.104;2023-06-22T02:49:20;23.88;;;19.33;;
46158;SDS011;31888;44.512;26.104;2023-06-22T02:51:45;24.80;;;18.50;;
46158;SDS011;31888;44.512;26.104;2023-06-22T02:56:42;22.83;;;18.85;;
46158;SDS011;31888;44.512;26.104;2023-06-22T02:59:07;28.55;;;19.10;;
46158;SDS011;31888;44.512;26.104;2023-06-22T03:01:34;28.50;;;19.70;;
46158;SDS011;31888;44.512;26.104;2023-06-22T03:04:12;26.88;;;19.48;;
46158;SDS011;31888;44.512;26.104;2023-06-22T03:06:38;24.10;;;19.63;;
46158;SDS011;31888;44.512;26.104;2023-06-22T03:09:04;25.98;;;18.77;;
46158;SDS011;31888;44.512;26.104;2023-06-22T03:11:32;23.25;;;18.10;;
46158;SDS011;31888;44.512;26.104;2023-06-22T03:13:57;26.10;;;19.17;;
46158;SDS011;31888;44.512;26.104;2023-06-22T03:16:23;25.15;;;19.75;;
46158;SDS011;31888;44.512;26.104;2023-06-22T03:18:48;26.77;;;19.85;;
46158;SDS011;31888;44.512;26.104;2023-06-22T03:24:09;24.70;;;19.90;;
46158;SDS011;31888;44.512;26.104;2023-06-22T03:26:36;28.08;;;19.20;;
46158;SDS011;31888;44.512;26.104;2023-06-22T03:29:01;25.02;;;19.25;;
46158;SDS011;31888;44.512;26.104;2023-06-22T03:31:29;23.50;;;19.08;;
46158;SDS011;31888;44.512;26.104;2023-06-22T03:33:54;26.35;;;18.63;;
46158;SDS011;31888;44.512;26.104;2023-06-22T03:36:20;27.50;;;19.33;;
46158;SDS011;31888;44.512;26.104;2023-06-22T03:38:45;23.83;;;17.77;;
46158;SDS011;31888;44.512;26.104;2023-06-22T03:41:11;24.27;;;18.83;;
46158;SDS011;31888;44.512;26.104;2023-06-22T03:43:38;25.13;;;17.80;;
46158;SDS011;31888;44.512;26.104;2023-06-22T03:46:03;21.85;;;17.58;;
46158;SDS011;31888;44.512;26.104;2023-06-22T03:48:28;22.15;;;18.27;;
46158;SDS011;31888;44.512;26.104;2023-06-22T03:50:54;20.58;;;16.98;;
46158;SDS011;31888;44.512;26.104;2023-06-22T03:53:19;23.67;;;17.80;;
46158;SDS011;31888;44.512;26.104;2023-06-22T03:55:47;29.50;;;18.52;;
46158;SDS011;31888;44.512;26.104;2023-06-22T03:58:13;23.50;;;17.33;;
46158;SDS011;31888;44.512;26.104;2023-06-22T04:00:39;22.88;;;16.70;;
46158;SDS011;31888;44.512;26.104;2023-06-22T04:03:04;19.52;;;16.80;;
46158;SDS011;31888;44.512;26.104;2023-06-22T04:05:30;23.88;;;17.88;;
46158;SDS011;31888;44.512;26.104;2023-06-22T04:07:55;25.23;;;16.95;;
46158;SDS011;31888;44.512;26.104;2023-06-22T04:10:20;20.65;;;15.65;;
46158;SDS011;31888;44.512;26.104;2023-06-22T04:12:51;22.20;;;17.83;;
46158;SDS011;31888;44.512;26.104;2023-06-22T04:15:17;26.30;;;16.60;;
46158;SDS011;31888;44.512;26.104;2023-06-22T04:17:43;18.70;;;16.42;;
46158;SDS011;31888;44.512;26.104;2023-06-22T04:20:08;22.27;;;17.45;;
46158;SDS011;31888;44.512;26.104;2023-06-22T04:22:33;24.98;;;17.50;;
46158;SDS011;31888;44.512;26.104;2023-06-22T04:24:58;24.25;;;17.17;;
46158;SDS011;31888;44.512;26.104;2023-06-22T04:27:23;24.58;;;16.58;;
46158;SDS011;31888;44.512;26.104;2023-06-22T04:29:47;24.65;;;16.33;;
46158;SDS011;31888;44.512;26.104;2023-06-22T04:32:14;22.23;;;16.95;;
46158;SDS011;31888;44.512;26.104;2023-06-22T04:34:40;24.92;;;17.38;;
46158;SDS011;31888;44.512;26.104;2023-06-22T04:37:05;22.90;;;16.67;;
46158;SDS011;31888;44.512;26.104;2023-06-22T04:39:30;24.00;;;16.27;;
46158;SDS011;31888;44.512;26.104;2023-06-22T04:41:55;16.90;;;14.73;;
46158;SDS011;31888;44.512;26.104;2023-06-22T04:44:23;18.02;;;15.10;;
46158;SDS011;31888;44.512;26.104;2023-06-22T04:46:48;19.30;;;15.95;;
46158;SDS011;31888;44.512;26.104;2023-06-22T04:49:16;25.02;;;16.48;;
46158;SDS011;31888;44.512;26.104;2023-06-22T04:51:43;16.92;;;14.98;;
46158;SDS011;31888;44.512;26.104;2023-06-22T04:54:08;18.73;;;14.15;;
46158;SDS011;31888;44.512;26.104;2023-06-22T04:56:33;19.13;;;14.43;;
46158;SDS011;31888;44.512;26.104;2023-06-22T04:58:59;19.10;;;14.05;;
46158;SDS011;31888;44.512;26.104;2023-06-22T05:01:23;14.73;;;13.23;;
46158;SDS011;31888;44.512;26.104;2023-06-22T05:03:49;19.92;;;14.60;;
46158;SDS011;31888;44.512;26.104;2023-06-22T05:06:14;17.95;;;13.23;;
46158;SDS011;31888;44.512;26.104;2023-06-22T05:08:42;17.27;;;11.57;;
46158;SDS011;31888;44.512;26.104;2023-06-22T05:11:07;14.93;;;11.13;;
46158;SDS011;31888;44.512;26.104;2023-06-22T05:13:32;13.45;;;10.80;;
46158;SDS011;31888;44.512;26.104;2023-06-22T05:15:56;17.02;;;12.70;;
46158;SDS011;31888;44.512;26.104;2023-06-22T05:18:25;20.83;;;12.20;;
46158;SDS011;31888;44.512;26.104;2023-06-22T05:20:49;16.00;;;13.05;;
46158;SDS011;31888;44.512;26.104;2023-06-22T05:23:14;18.23;;;12.93;;
46158;SDS011;31888;44.512;26.104;2023-06-22T05:25:40;18.08;;;11.32;;
46158;SDS011;31888;44.512;26.104;2023-06-22T05:28:04;22.20;;;12.07;;
46158;SDS011;31888;44.512;26.104;2023-06-22T05:30:33;17.88;;;11.90;;
46158;SDS011;31888;44.512;26.104;2023-06-22T05:32:57;18.40;;;10.52;;
46158;SDS011;31888;44.512;26.104;2023-06-22T05:35:22;21.25;;;10.68;;
46158;SDS011;31888;44.512;26.104;2023-06-22T05:37:47;11.63;;;9.13;;
46158;SDS011;31888;44.512;26.104;2023-06-22T05:40:12;12.27;;;10.02;;
46158;SDS011;31888;44.512;26.104;2023-06-22T05:42:38;12.20;;;9.43;;
46158;SDS011;31888;44.512;26.104;2023-06-22T05:45:03;13.25;;;9.88;;
46158;SDS011;31888;44.512;26.104;2023-06-22T05:47:28;17.35;;;9.63;;
46158;SDS011;31888;44.512;26.104;2023-06-22T05:49:53;12.00;;;9.38;;
46158;SDS011;31888;44.512;26.104;2023-06-22T05:52:17;19.50;;;11.05;;
46158;SDS011;31888;44.512;26.104;2023-06-22T05:54:46;16.90;;;9.88;;
46158;SDS011;31888;44.512;26.104;2023-06-22T05:57:32;18.08;;;10.32;;
46158;SDS011;31888;44.512;26.104;2023-06-22T05:59:58;16.00;;;10.35;;
46158;SDS011;31888;44.512;26.104;2023-06-22T06:02:27;16.67;;;10.05;;
46158;SDS011;31888;44.512;26.104;2023-06-22T06:04:51;15.00;;;10.10;;
46158;SDS011;31888;44.512;26.104;2023-06-22T06:07:17;12.32;;;10.10;;
46158;SDS011;31888;44.512;26.104;2023-06-22T06:09:41;14.88;;;9.88;;
46158;SDS011;31888;44.512;26.104;2023-06-22T06:12:07;16.77;;;10.45;;
46158;SDS011;31888;44.512;26.104;2023-06-22T06:14:33;16.25;;;10.55;;
46158;SDS011;31888;44.512;26.104;2023-06-22T06:17:00;15.85;;;10.38;;
46158;SDS011;31888;44.512;26.104;2023-06-22T06:19:25;12.65;;;9.77;;
46158;SDS011;31888;44.512;26.104;2023-06-22T06:21:50;14.32;;;9.75;;
46158;SDS011;31888;44.512;26.104;2023-06-22T06:24:15;11.30;;;9.25;;
46158;SDS011;31888;44.512;26.104;2023-06-22T06:26:40;15.77;;;9.77;;
46158;SDS011;31888;44.512;26.104;2023-06-22T06:29:05;16.98;;;9.80;;
46158;SDS011;31888;44.512;26.104;2023-06-22T06:31:30;12.07;;;9.18;;
46158;SDS011;31888;44.512;26.104;2023-06-22T06:33:57;16.38;;;10.20;;
46158;SDS011;31888;44.512;26.104;2023-06-22T06:36:22;14.68;;;10.88;;
46158;SDS011;31888;44.512;26.104;2023-06-22T06:38:47;16.55;;;9.10;;
46158;SDS011;31888;44.512;26.104;2023-06-22T06:41:12;12.88;;;9.95;;
46158;SDS011;31888;44.512;26.104;2023-06-22T06:43:37;14.38;;;9.38;;
46158;SDS011;31888;44.512;26.104;2023-06-22T06:46:02;13.02;;;10.55;;
46158;SDS011;31888;44.512;26.104;2023-06-22T06:48:27;12.68;;;9.48;;
46158;SDS011;31888;44.512;26.104;2023-06-22T06:50:54;17.77;;;10.43;;
46158;SDS011;31888;44.512;26.104;2023-06-22T06:53:19;13.48;;;9.23;;
46158;SDS011;31888;44.512;26.104;2023-06-22T06:55:44;14.82;;;9.38;;
46158;SDS011;31888;44.512;26.104;2023-06-22T06:58:10;16.33;;;10.10;;
46158;SDS011;31888;44.512;26.104;2023-06-22T07:00:36;13.93;;;9.73;;
46158;SDS011;31888;44.512;26.104;2023-06-22T07:03:00;10.32;;;9.30;;
46158;SDS011;31888;44.512;26.104;2023-06-22T07:05:25;14.00;;;10.32;;
46158;SDS011;31888;44.512;26.104;2023-06-22T07:07:52;14.85;;;10.25;;
46158;SDS011;31888;44.512;26.104;2023-06-22T07:10:17;16.55;;;9.65;;
46158;SDS011;31888;44.512;26.104;2023-06-22T07:12:42;16.40;;;9.38;;
46158;SDS011;31888;44.512;26.104;2023-06-22T07:15:07;12.43;;;9.10;;
46158;SDS011;31888;44.512;26.104;2023-06-22T07:17:34;12.25;;;8.95;;
46158;SDS011;31888;44.512;26.104;2023-06-22T07:20:00;12.98;;;8.93;;
46158;SDS011;31888;44.512;26.104;2023-06-22T07:22:26;12.98;;;8.52;;
46158;SDS011;31888;44.512;26.104;2023-06-22T07:24:53;11.02;;;8.20;;
46158;SDS011;31888;44.512;26.104;2023-06-22T07:27:18;12.80;;;7.97;;
46158;SDS011;31888;44.512;26.104;2023-06-22T07:29:44;9.52;;;7.78;;
46158;SDS011;31888;44.512;26.104;2023-06-22T07:32:09;8.75;;;7.85;;
46158;SDS011;31888;44.512;26.104;2023-06-22T07:34:34;12.88;;;9.00;;
46158;SDS011;31888;44.512;26.104;2023-06-22T07:36:58;12.10;;;8.32;;
46158;SDS011;31888;44.512;26.104;2023-06-22T07:39:23;9.85;;;8.35;;
46158;SDS011;31888;44.512;26.104;2023-06-22T07:41:50;16.52;;;9.30;;
46158;SDS011;31888;44.512;26.104;2023-06-22T07:44:15;14.85;;;8.57;;
46158;SDS011;31888;44.512;26.104;2023-06-22T07:46:40;12.80;;;8.57;;
46158;SDS011;31888;44.512;26.104;2023-06-22T07:49:05;11.90;;;8.15;;
46158;SDS011;31888;44.512;26.104;2023-06-22T07:51:31;15.55;;;8.18;;
46158;SDS011;31888;44.512;26.104;2023-06-22T07:53:55;14.60;;;7.97;;
46158;SDS011;31888;44.512;26.104;2023-06-22T07:56:20;15.15;;;8.88;;
46158;SDS011;31888;44.512;26.104;2023-06-22T07:58:47;10.60;;;9.27;;
46158;SDS011;31888;44.512;26.104;2023-06-22T08:01:12;10.90;;;8.88;;
46158;SDS011;31888;44.512;26.104;2023-06-22T08:03:37;13.07;;;8.20;;
46158;SDS011;31888;44.512;26.104;2023-06-22T08:06:03;10.57;;;7.90;;
46158;SDS011;31888;44.512;26.104;2023-06-22T08:08:28;14.75;;;8.20;;
46158;SDS011;31888;44.512;26.104;2023-06-22T08:10:55;11.63;;;8.38;;
46158;SDS011;31888;44.512;26.104;2023-06-22T08:13:20;11.98;;;8.20;;
46158;SDS011;31888;44.512;26.104;2023-06-22T08:15:46;10.57;;;7.97;;
46158;SDS011;31888;44.512;26.104;2023-06-22T08:18:11;11.35;;;8.20;;
46158;SDS011;31888;44.512;26.104;2023-06-22T08:20:36;10.52;;;8.10;;
46158;SDS011;31888;44.512;26.104;2023-06-22T08:23:01;8.70;;;7.80;;
46158;SDS011;31888;44.512;26.104;2023-06-22T08:25:29;12.10;;;8.95;;
46158;SDS011;31888;44.512;26.104;2023-06-22T08:27:54;13.25;;;7.50;;
46158;SDS011;31888;44.512;26.104;2023-06-22T08:30:18;11.27;;;8.73;;
46158;SDS011;31888;44.512;26.104;2023-06-22T08:32:44;11.55;;;8.35;;
46158;SDS011;31888;44.512;26.104;2023-06-22T08:35:09;10.52;;;7.82;;
46158;SDS011;31888;44.512;26.104;2023-06-22T08:37:34;13.30;;;8.65;;
46158;SDS011;31888;44.512;26.104;2023-06-22T08:39:59;13.20;;;8.57;;
46158;SDS011;31888;44.512;26.104;2023-06-22T08:42:26;9.77;;;8.77;;
46158;SDS011;31888;44.512;26.104;2023-06-22T08:44:51;12.63;;;9.18;;
46158;SDS011;31888;44.512;26.104;2023-06-22T08:47:16;9.32;;;8.25;;
46158;SDS011;31888;44.512;26.104;2023-06-22T08:49:42;10.50;;;8.15;;
46158;SDS011;31888;44.512;26.104;2023-06-22T08:52:07;13.10;;;8.38;;
46158;SDS011;31888;44.512;26.104;2023-06-22T08:54:34;12.75;;;8.77;;
46158;SDS011;31888;44.512;26.104;2023-06-22T08:56:59;14.55;;;9.02;;
46158;SDS011;31888;44.512;26.104;2023-06-22T08:59:24;13.48;;;8.60;;
46158;SDS011;31888;44.512;26.104;2023-06-22T09:01:48;13.48;;;8.68;;
46158;SDS011;31888;44.512;26.104;2023-06-22T09:04:13;12.07;;;9.40;;
46158;SDS011;31888;44.512;26.104;2023-06-22T09:06:40;12.60;;;9.13;;
46158;SDS011;31888;44.512;26.104;2023-06-22T09:09:07;9.73;;;8.73;;
46158;SDS011;31888;44.512;26.104;2023-06-22T09:11:32;10.48;;;8.93;;
46158;SDS011;31888;44.512;26.104;2023-06-22T09:13:57;12.27;;;9.15;;
46158;SDS011;31888;44.512;26.104;2023-06-22T09:16:22;11.35;;;8.82;;
46158;SDS011;31888;44.512;26.104;2023-06-22T09:18:47;10.05;;;8.85;;
46158;SDS011;31888;44.512;26.104;2023-06-22T09:21:13;12.20;;;8.85;;
46158;SDS011;31888;44.512;26.104;2023-06-22T09:23:41;11.38;;;9.15;;
46158;SDS011;31888;44.512;26.104;2023-06-22T09:26:09;12.07;;;9.73;;
46158;SDS011;31888;44.512;26.104;2023-06-22T09:28:34;13.05;;;9.65;;
46158;SDS011;31888;44.512;26.104;2023-06-22T09:30:59;12.82;;;9.40;;
46158;SDS011;31888;44.512;26.104;2023-06-22T09:33:24;10.77;;;8.73;;
46158;SDS011;31888;44.512;26.104;2023-06-22T09:35:49;10.77;;;9.43;;
46158;SDS011;31888;44.512;26.104;2023-06-22T09:38:14;10.82;;;8.90;;
46158;SDS011;31888;44.512;26.104;2023-06-22T09:40:44;12.30;;;9.70;;
46158;SDS011;31888;44.512;26.104;2023-06-22T09:43:09;15.25;;;9.23;;
46158;SDS011;31888;44.512;26.104;2023-06-22T09:45:34;14.07;;;9.07;;
46158;SDS011;31888;44.512;26.104;2023-06-22T09:47:59;12.75;;;8.70;;
46158;SDS011;31888;44.512;26.104;2023-06-22T09:50:24;12.13;;;9.35;;
46158;SDS011;31888;44.512;26.104;2023-06-22T09:52:50;11.48;;;9.10;;
46158;SDS011;31888;44.512;26.104;2023-06-22T09:55:17;12.15;;;9.73;;
46158;SDS011;31888;44.512;26.104;2023-06-22T09:57:44;10.75;;;8.93;;
46158;SDS011;31888;44.512;26.104;2023-06-22T10:00:09;10.35;;;9.00;;
46158;SDS011;31888;44.512;26.104;2023-06-22T10:02:36;13.02;;;9.45;;
46158;SDS011;31888;44.512;26.104;2023-06-22T10:05:00;13.15;;;9.52;;
46158;SDS011;31888;44.512;26.104;2023-06-22T10:07:26;12.40;;;9.60;;
46158;SDS011;31888;44.512;26.104;2023-06-22T10:09:51;11.90;;;9.15;;
46158;SDS011;31888;44.512;26.104;2023-06-22T10:12:16;13.60;;;10.13;;
46158;SDS011;31888;44.512;26.104;2023-06-22T10:14:42;11.60;;;9.88;;
46158;SDS011;31888;44.512;26.104;2023-06-22T10:17:08;15.07;;;9.70;;
46158;SDS011;31888;44.512;26.104;2023-06-22T10:19:34;17.75;;;9.93;;
46158;SDS011;31888;44.512;26.104;2023-06-22T10:22:00;10.85;;;9.70;;
46158;SDS011;31888;44.512;26.104;2023-06-22T10:24:24;11.60;;;9.90;;
46158;SDS011;31888;44.512;26.104;2023-06-22T10:26:49;10.15;;;9.13;;
46158;SDS011;31888;44.512;26.104;2023-06-22T10:29:14;11.20;;;9.35;;
46158;SDS011;31888;44.512;26.104;2023-06-22T10:31:41;10.60;;;9.60;;
46158;SDS011;31888;44.512;26.104;2023-06-22T10:34:06;13.73;;;9.52;;
46158;SDS011;31888;44.512;26.104;2023-06-22T10:36:32;14.52;;;10.20;;
46158;SDS011;31888;44.512;26.104;2023-06-22T10:38:56;12.43;;;10.23;;
46158;SDS011;31888;44.512;26.104;2023-06-22T10:41:22;13.15;;;9.57;;
46158;SDS011;31888;44.512;26.104;2023-06-22T10:43:47;13.95;;;10.45;;
46158;SDS011;31888;44.512;26.104;2023-06-22T10:46:12;13.05;;;9.57;;
46158;SDS011;31888;44.512;26.104;2023-06-22T10:48:38;16.98;;;9.77;;
46158;SDS011;31888;44.512;26.104;2023-06-22T10:51:03;12.60;;;10.40;;
46158;SDS011;31888;44.512;26.104;2023-06-22T10:53:27;11.85;;;10.27;;
46158;SDS011;31888;44.512;26.104;2023-06-22T10:55:53;10.70;;;9.60;;
46158;SDS011;31888;44.512;26.104;2023-06-22T10:58:19;15.50;;;9.85;;
46158;SDS011;31888;44.512;26.104;2023-06-22T11:00:44;11.23;;;9.40;;
46158;SDS011;31888;44.512;26.104;2023-06-22T11:03:09;12.73;;;10.27;;
46158;SDS011;31888;44.512;26.104;2023-06-22T11:05:38;10.98;;;9.23;;
46158;SDS011;31888;44.512;26.104;2023-06-22T11:08:02;12.10;;;9.43;;
46158;SDS011;31888;44.512;26.104;2023-06-22T11:10:27;11.60;;;9.65;;
46158;SDS011;31888;44.512;26.104;2023-06-22T11:12:53;13.00;;;9.77;;
46158;SDS011;31888;44.512;26.104;2023-06-22T11:15:19;12.13;;;9.63;;
46158;SDS011;31888;44.512;26.104;2023-06-22T11:17:44;10.32;;;9.30;;
46158;SDS011;31888;44.512;26.104;2023-06-22T11:20:09;12.13;;;9.57;;
46158;SDS011;31888;44.512;26.104;2023-06-22T11:22:35;12.00;;;10.70;;
46158;SDS011;31888;44.512;26.104;2023-06-22T11:25:02;10.80;;;9.68;;
46158;SDS011;31888;44.512;26.104;2023-06-22T11:27:27;10.90;;;9.75;;
46158;SDS011;31888;44.512;26.104;2023-06-22T11:29:52;10.77;;;9.10;;
46158;SDS011;31888;44.512;26.104;2023-06-22T11:32:17;13.75;;;10.35;;
46158;SDS011;31888;44.512;26.104;2023-06-22T11:34:42;11.40;;;9.80;;
46158;SDS011;31888;44.512;26.104;2023-06-22T11:37:06;10.82;;;9.73;;
46158;SDS011;31888;44.512;26.104;2023-06-22T11:39:33;11.23;;;10.13;;
46158;SDS011;31888;44.512;26.104;2023-06-22T11:42:09;11.95;;;9.48;;
46158;SDS011;31888;44.512;26.104;2023-06-22T11:44:34;10.85;;;9.82;;
46158;SDS011;31888;44.512;26.104;2023-06-22T11:46:59;11.45;;;10.35;;
46158;SDS011;31888;44.512;26.104;2023-06-22T11:49:26;14.38;;;9.57;;
46158;SDS011;31888;44.512;26.104;2023-06-22T11:51:52;15.18;;;10.40;;
46158;SDS011;31888;44.512;26.104;2023-06-22T11:54:17;12.13;;;10.02;;
46158;SDS011;31888;44.512;26.104;2023-06-22T11:56:44;12.45;;;9.50;;
46158;SDS011;31888;44.512;26.104;2023-06-22T11:59:09;11.10;;;10.00;;
46158;SDS011;31888;44.512;26.104;2023-06-22T12:01:34;12.85;;;10.65;;
46158;SDS011;31888;44.512;26.104;2023-06-22T12:03:59;12.18;;;9.98;;
46158;SDS011;31888;44.512;26.104;2023-06-22T12:06:24;15.15;;;10.63;;
46158;SDS011;31888;44.512;26.104;2023-06-22T12:08:49;11.35;;;10.25;;
46158;SDS011;31888;44.512;26.104;2023-06-22T12:11:13;13.40;;;10.13;;
46158;SDS011;31888;44.512;26.104;2023-06-22T12:13:40;12.60;;;10.35;;
46158;SDS011;31888;44.512;26.104;2023-06-22T12:16:14;15.68;;;10.23;;
46158;SDS011;31888;44.512;26.104;2023-06-22T12:18:47;11.20;;;10.10;;
46158;SDS011;31888;44.512;26.104;2023-06-22T12:21:11;12.75;;;10.60;;
46158;SDS011;31888;44.512;26.104;2023-06-22T12:23:36;11.65;;;10.07;;
46158;SDS011;31888;44.512;26.104;2023-06-22T12:26:01;11.45;;;10.35;;
46158;SDS011;31888;44.512;26.104;2023-06-22T12:28:26;13.38;;;10.02;;
46158;SDS011;31888;44.512;26.104;2023-06-22T12:30:54;13.00;;;10.18;;
46158;SDS011;31888;44.512;26.104;2023-06-22T12:33:19;12.63;;;10.13;;
46158;SDS011;31888;44.512;26.104;2023-06-22T12:35:43;11.57;;;10.48;;
46158;SDS011;31888;44.512;26.104;2023-06-22T12:38:11;12.52;;;11.25;;
46158;SDS011;31888;44.512;26.104;2023-06-22T12:40:36;12.00;;;10.73;;
46158;SDS011;31888;44.512;26.104;2023-06-22T12:43:01;12.23;;;10.57;;
46158;SDS011;31888;44.512;26.104;2023-06-22T12:45:26;11.85;;;10.68;;
46158;SDS011;31888;44.512;26.104;2023-06-22T12:47:57;14.43;;;10.60;;
46158;SDS011;31888;44.512;26.104;2023-06-22T12:50:22;12.30;;;10.82;;
46158;SDS011;31888;44.512;26.104;2023-06-22T12:52:47;12.85;;;10.10;;
46158;SDS011;31888;44.512;26.104;2023-06-22T12:55:12;14.77;;;10.77;;
46158;SDS011;31888;44.512;26.104;2023-06-22T12:57:36;13.30;;;11.10;;
46158;SDS011;31888;44.512;26.104;2023-06-22T13:00:01;11.85;;;10.63;;
46158;SDS011;31888;44.512;26.104;2023-06-22T13:02:31;13.10;;;10.30;;
46158;SDS011;31888;44.512;26.104;2023-06-22T13:04:57;12.43;;;10.48;;
46158;SDS011;31888;44.512;26.104;2023-06-22T13:07:22;14.57;;;11.27;;
46158;SDS011;31888;44.512;26.104;2023-06-22T13:09:47;12.18;;;10.85;;
46158;SDS011;31888;44.512;26.104;2023-06-22T13:12:15;12.77;;;11.25;;
46158;SDS011;31888;44.512;26.104;2023-06-22T13:14:39;11.98;;;10.77;;
46158;SDS011;31888;44.512;26.104;2023-06-22T13:17:05;11.95;;;9.88;;
46158;SDS011;31888;44.512;26.104;2023-06-22T13:19:30;12.20;;;10.65;;
46158;SDS011;31888;44.512;26.104;2023-06-22T13:21:56;13.32;;;10.68;;
46158;SDS011;31888;44.512;26.104;2023-06-22T13:24:21;12.57;;;10.63;;
46158;SDS011;31888;44.512;26.104;2023-06-22T13:26:46;11.30;;;10.30;;
46158;SDS011;31888;44.512;26.104;2023-06-22T13:29:11;14.13;;;11.15;;
46158;SDS011;31888;44.512;26.104;2023-06-22T13:31:36;12.38;;;10.77;;
46158;SDS011;31888;44.512;26.104;2023-06-22T13:34:01;15.82;;;11.75;;
46158;SDS011;31888;44.512;26.104;2023-06-22T13:36:26;13.20;;;11.80;;
46158;SDS011;31888;44.512;26.104;2023-06-22T13:38:55;18.15;;;10.95;;
46158;SDS011;31888;44.512;26.104;2023-06-22T13:41:19;16.02;;;11.15;;
46158;SDS011;31888;44.512;26.104;2023-06-22T13:43:44;11.57;;;9.85;;
46158;SDS011;31888;44.512;26.104;2023-06-22T13:46:09;15.35;;;10.98;;
46158;SDS011;31888;44.512;26.104;2023-06-22T13:48:33;14.40;;;11.07;;
46158;SDS011;31888;44.512;26.104;2023-06-22T13:51:00;12.73;;;10.98;;
46158;SDS011;31888;44.512;26.104;2023-06-22T13:53:24;14.70;;;10.65;;
46158;SDS011;31888;44.512;26.104;2023-06-22T13:55:51;12.20;;;10.90;;
46158;SDS011;31888;44.512;26.104;2023-06-22T13:58:15;16.50;;;11.52;;
46158;SDS011;31888;44.512;26.104;2023-06-22T14:00:42;13.65;;;11.77;;
46158;SDS011;31888;44.512;26.104;2023-06-22T14:03:07;15.65;;;11.15;;
46158;SDS011;31888;44.512;26.104;2023-06-22T14:05:33;11.45;;;10.35;;
46158;SDS011;31888;44.512;26.104;2023-06-22T14:07:58;12.55;;;10.07;;
46158;SDS011;31888;44.512;26.104;2023-06-22T14:10:22;12.27;;;10.70;;
46158;SDS011;31888;44.512;26.104;2023-06-22T14:12:49;12.93;;;10.85;;
46158;SDS011;31888;44.512;26.104;2023-06-22T14:15:17;13.20;;;9.95;;
46158;SDS011;31888;44.512;26.104;2023-06-22T14:17:42;11.27;;;10.10;;